sensor_id;sensor_type;location;lat;lon;timestamp;P1;durP1;ratioP1;P2;durP2;ratioP2
37905;SDS011;23739;51.448;6.674;2023-04-24T00:01:53;1.13;;;0.80;;
37905;SDS011;23739;51.448;6.674;2023-04-24T00:04:20;1.67;;;0.77;;
37905;SDS011;23739;51.448;6.674;2023-04-24T00:06:46;0.93;;;0.90;;
37905;SDS011;23739;51.448;6.674;2023-04-24T00:09:18;2.00;;;0.80;;
37905;SDS011;23739;51.448;6.674;2023-04-24T00:11:44;6.25;;;1.20;;
37905;SDS011;23739;51.448;6.674;2023-04-24T00:14:10;0.90;;;0.90;;
37905;SDS011;23739;51.448;6.674;2023-04-24T00:16:36;1.05;;;0.80;;
37905;SDS011;23739;51.448;6.674;2023-04-24T00:19:02;1.92;;;0.98;;
37905;SDS011;23739;51.448;6.674;2023-04-24T00:21:30;0.95;;;0.88;;
37905;SDS011;23739;51.448;6.674;2023-04-24T00:23:57;2.42;;;1.02;;
37905;SDS011;23739;51.448;6.674;2023-04-24T00:26:24;1.15;;;0.80;;
37905;SDS011;23739;51.448;6.674;2023-04-24T00:28:50;1.33;;;0.93;;
37905;SDS011;23739;51.448;6.674;2023-04-24T00:31:16;1.63;;;1.35;;
37905;SDS011;23739;51.448;6.674;2023-04-24T00:33:42;2.40;;;1.30;;
37905;SDS011;23739;51.448;6.674;2023-04-24T00:36:08;2.65;;;1.63;;
37905;SDS011;23739;51.448;6.674;2023-04-24T00:38:34;2.40;;;1.52;;
37905;SDS011;23739;51.448;6.674;2023-04-24T00:41:00;2.15;;;1.67;;
37905;SDS011;23739;51.448;6.674;2023-04-24T00:43:27;2.55;;;2.33;;
37905;SDS011;23739;51.448;6.674;2023-04-24T00:45:53;3.00;;;2.28;;
37905;SDS011;23739;51.448;6.674;2023-04-24T00:48:20;4.20;;;1.98;;
37905;SDS011;23739;51.448;6.674;2023-04-24T00:50:46;3.33;;;2.20;;
37905;SDS011;23739;51.448;6.674;2023-04-24T00:53:12;6.68;;;2.80;;
37905;SDS011;23739;51.448;6.674;2023-04-24T00:55:38;6.15;;;2.83;;
37905;SDS011;23739;51.448;6.674;2023-04-24T00:58:04;4.32;;;2.47;;
37905;SDS011;23739;51.448;6.674;2023-04-24T01:00:31;3.42;;;3.00;;
37905;SDS011;23739;51.448;6.674;2023-04-24T01:02:57;3.72;;;2.50;;
37905;SDS011;23739;51.448;6.674;2023-04-24T01:05:24;4.07;;;3.03;;
37905;SDS011;23739;51.448;6.674;2023-04-24T01:07:51;6.85;;;3.85;;
37905;SDS011;23739;51.448;6.674;2023-04-24T01:10:17;5.95;;;3.38;;
37905;SDS011;23739;51.448;6.674;2023-04-24T01:12:45;6.00;;;3.15;;
37905;SDS011;23739;51.448;6.674;2023-04-24T01:15:11;4.80;;;3.03;;
37905;SDS011;23739;51.448;6.674;2023-04-24T01:17:37;7.60;;;4.18;;
37905;SDS011;23739;51.448;6.674;2023-04-24T01:20:04;8.95;;;3.92;;
37905;SDS011;23739;51.448;6.674;2023-04-24T01:22:32;7.90;;;3.83;;
37905;SDS011;23739;51.448;6.674;2023-04-24T01:24:58;7.20;;;4.35;;
37905;SDS011;23739;51.448;6.674;2023-04-24T01:27:24;6.47;;;4.47;;
37905;SDS011;23739;51.448;6.674;2023-04-24T01:29:50;8.13;;;4.85;;
37905;SDS011;23739;51.448;6.674;2023-04-24T01:32:17;6.65;;;4.20;;
37905;SDS011;23739;51.448;6.674;2023-04-24T01:34:43;8.52;;;4.13;;
37905;SDS011;23739;51.448;6.674;2023-04-24T01:37:10;8.43;;;4.50;;
37905;SDS011;23739;51.448;6.674;2023-04-24T01:39:36;6.68;;;5.20;;
37905;SDS011;23739;51.448;6.674;2023-04-24T01:42:02;9.23;;;4.70;;
37905;SDS011;23739;51.448;6.674;2023-04-24T01:44:28;8.13;;;4.97;;
37905;SDS011;23739;51.448;6.674;2023-04-24T01:46:54;5.63;;;4.53;;
37905;SDS011;23739;51.448;6.674;2023-04-24T01:49:21;8.25;;;4.35;;
37905;SDS011;23739;51.448;6.674;2023-04-24T01:51:47;8.25;;;3.97;;
37905;SDS011;23739;51.448;6.674;2023-04-24T01:54:13;5.78;;;3.85;;
37905;SDS011;23739;51.448;6.674;2023-04-24T01:56:42;5.20;;;4.38;;
37905;SDS011;23739;51.448;6.674;2023-04-24T01:59:09;4.60;;;4.15;;
37905;SDS011;23739;51.448;6.674;2023-04-24T02:01:36;9.52;;;4.80;;
37905;SDS011;23739;51.448;6.674;2023-04-24T02:04:03;4.53;;;3.92;;
37905;SDS011;23739;51.448;6.674;2023-04-24T02:06:29;6.18;;;4.65;;
37905;SDS011;23739;51.448;6.674;2023-04-24T02:08:56;7.35;;;5.55;;
37905;SDS011;23739;51.448;6.674;2023-04-24T02:11:23;6.13;;;4.60;;
37905;SDS011;23739;51.448;6.674;2023-04-24T02:13:49;7.97;;;4.90;;
37905;SDS011;23739;51.448;6.674;2023-04-24T02:16:16;7.93;;;5.63;;
37905;SDS011;23739;51.448;6.674;2023-04-24T02:18:42;7.88;;;6.25;;
37905;SDS011;23739;51.448;6.674;2023-04-24T02:21:09;7.35;;;5.43;;
37905;SDS011;23739;51.448;6.674;2023-04-24T02:23:35;9.25;;;6.55;;
37905;SDS011;23739;51.448;6.674;2023-04-24T02:26:01;8.57;;;6.03;;
37905;SDS011;23739;51.448;6.674;2023-04-24T02:28:27;9.43;;;6.88;;
37905;SDS011;23739;51.448;6.674;2023-04-24T02:30:53;9.65;;;6.75;;
37905;SDS011;23739;51.448;6.674;2023-04-24T02:33:20;17.08;;;8.05;;
37905;SDS011;23739;51.448;6.674;2023-04-24T02:35:46;10.43;;;7.10;;
37905;SDS011;23739;51.448;6.674;2023-04-24T02:38:12;10.70;;;7.18;;
37905;SDS011;23739;51.448;6.674;2023-04-24T02:40:38;10.40;;;8.68;;
37905;SDS011;23739;51.448;6.674;2023-04-24T02:43:04;11.48;;;7.63;;
37905;SDS011;23739;51.448;6.674;2023-04-24T02:45:30;11.95;;;7.90;;
37905;SDS011;23739;51.448;6.674;2023-04-24T02:47:56;12.35;;;8.73;;
37905;SDS011;23739;51.448;6.674;2023-04-24T02:50:22;13.95;;;8.38;;
37905;SDS011;23739;51.448;6.674;2023-04-24T02:52:48;10.43;;;7.78;;
37905;SDS011;23739;51.448;6.674;2023-04-24T02:55:14;14.02;;;8.10;;
37905;SDS011;23739;51.448;6.674;2023-04-24T02:57:40;13.05;;;8.40;;
37905;SDS011;23739;51.448;6.674;2023-04-24T03:00:07;11.63;;;8.90;;
37905;SDS011;23739;51.448;6.674;2023-04-24T03:02:33;12.95;;;8.95;;
37905;SDS011;23739;51.448;6.674;2023-04-24T03:05:00;13.60;;;8.98;;
37905;SDS011;23739;51.448;6.674;2023-04-24T03:07:27;12.73;;;9.15;;
37905;SDS011;23739;51.448;6.674;2023-04-24T03:09:53;16.05;;;9.38;;
37905;SDS011;23739;51.448;6.674;2023-04-24T03:12:19;16.20;;;9.73;;
37905;SDS011;23739;51.448;6.674;2023-04-24T03:14:45;12.48;;;9.52;;
37905;SDS011;23739;51.448;6.674;2023-04-24T03:17:11;17.85;;;10.18;;
37905;SDS011;23739;51.448;6.674;2023-04-24T03:19:37;13.23;;;10.65;;
37905;SDS011;23739;51.448;6.674;2023-04-24T03:22:03;12.82;;;9.88;;
37905;SDS011;23739;51.448;6.674;2023-04-24T03:24:30;16.98;;;10.27;;
37905;SDS011;23739;51.448;6.674;2023-04-24T03:26:56;18.23;;;9.75;;
37905;SDS011;23739;51.448;6.674;2023-04-24T03:29:22;20.15;;;9.57;;
37905;SDS011;23739;51.448;6.674;2023-04-24T03:31:48;17.27;;;10.57;;
37905;SDS011;23739;51.448;6.674;2023-04-24T03:34:14;17.70;;;11.82;;
37905;SDS011;23739;51.448;6.674;2023-04-24T03:36:40;14.48;;;9.55;;
37905;SDS011;23739;51.448;6.674;2023-04-24T03:39:06;13.48;;;9.30;;
37905;SDS011;23739;51.448;6.674;2023-04-24T03:41:32;15.65;;;10.82;;
37905;SDS011;23739;51.448;6.674;2023-04-24T03:43:59;16.65;;;9.65;;
37905;SDS011;23739;51.448;6.674;2023-04-24T03:46:25;18.00;;;10.00;;
37905;SDS011;23739;51.448;6.674;2023-04-24T03:48:51;14.20;;;9.35;;
37905;SDS011;23739;51.448;6.674;2023-04-24T03:51:17;16.50;;;9.38;;
37905;SDS011;23739;51.448;6.674;2023-04-24T03:53:43;13.65;;;9.52;;
37905;SDS011;23739;51.448;6.674;2023-04-24T03:56:09;17.85;;;10.02;;
37905;SDS011;23739;51.448;6.674;2023-04-24T03:58:35;15.63;;;9.27;;
37905;SDS011;23739;51.448;6.674;2023-04-24T04:01:02;11.32;;;9.15;;
37905;SDS011;23739;51.448;6.674;2023-04-24T04:03:28;16.45;;;8.85;;
37905;SDS011;23739;51.448;6.674;2023-04-24T04:05:54;17.17;;;8.82;;
37905;SDS011;23739;51.448;6.674;2023-04-24T04:08:20;15.25;;;9.23;;
37905;SDS011;23739;51.448;6.674;2023-04-24T04:10:46;14.65;;;9.43;;
37905;SDS011;23739;51.448;6.674;2023-04-24T04:13:12;14.10;;;9.50;;
37905;SDS011;23739;51.448;6.674;2023-04-24T04:15:38;12.93;;;9.38;;
37905;SDS011;23739;51.448;6.674;2023-04-24T04:18:04;13.05;;;8.57;;
37905;SDS011;23739;51.448;6.674;2023-04-24T04:20:31;13.00;;;9.02;;
37905;SDS011;23739;51.448;6.674;2023-04-24T04:22:57;15.38;;;8.68;;
37905;SDS011;23739;51.448;6.674;2023-04-24T04:25:23;12.15;;;9.07;;
37905;SDS011;23739;51.448;6.674;2023-04-24T04:27:49;17.98;;;8.43;;
37905;SDS011;23739;51.448;6.674;2023-04-24T04:30:16;12.10;;;8.65;;
37905;SDS011;23739;51.448;6.674;2023-04-24T04:32:43;14.13;;;8.77;;
37905;SDS011;23739;51.448;6.674;2023-04-24T04:35:09;13.23;;;7.80;;
37905;SDS011;23739;51.448;6.674;2023-04-24T04:37:35;10.48;;;8.20;;
37905;SDS011;23739;51.448;6.674;2023-04-24T04:40:02;10.02;;;7.68;;
37905;SDS011;23739;51.448;6.674;2023-04-24T04:42:31;14.15;;;8.57;;
37905;SDS011;23739;51.448;6.674;2023-04-24T04:44:59;13.55;;;8.20;;
37905;SDS011;23739;51.448;6.674;2023-04-24T04:47:25;10.90;;;7.45;;
37905;SDS011;23739;51.448;6.674;2023-04-24T04:49:51;11.23;;;7.82;;
37905;SDS011;23739;51.448;6.674;2023-04-24T04:52:18;12.95;;;8.35;;
37905;SDS011;23739;51.448;6.674;2023-04-24T04:54:44;11.77;;;7.95;;
37905;SDS011;23739;51.448;6.674;2023-04-24T04:57:11;13.25;;;7.43;;
37905;SDS011;23739;51.448;6.674;2023-04-24T04:59:38;9.63;;;6.95;;
37905;SDS011;23739;51.448;6.674;2023-04-24T05:02:04;14.50;;;7.93;;
37905;SDS011;23739;51.448;6.674;2023-04-24T05:04:30;10.30;;;7.38;;
37905;SDS011;23739;51.448;6.674;2023-04-24T05:06:56;9.07;;;7.32;;
37905;SDS011;23739;51.448;6.674;2023-04-24T05:09:22;16.02;;;7.50;;
37905;SDS011;23739;51.448;6.674;2023-04-24T05:11:52;12.15;;;7.47;;
37905;SDS011;23739;51.448;6.674;2023-04-24T05:14:18;10.13;;;6.80;;
37905;SDS011;23739;51.448;6.674;2023-04-24T05:16:44;13.07;;;7.45;;
37905;SDS011;23739;51.448;6.674;2023-04-24T05:19:10;11.77;;;6.38;;
37905;SDS011;23739;51.448;6.674;2023-04-24T05:21:38;10.73;;;7.60;;
37905;SDS011;23739;51.448;6.674;2023-04-24T05:24:05;14.73;;;7.50;;
37905;SDS011;23739;51.448;6.674;2023-04-24T05:26:31;10.77;;;7.50;;
37905;SDS011;23739;51.448;6.674;2023-04-24T05:28:57;10.70;;;8.10;;
37905;SDS011;23739;51.448;6.674;2023-04-24T05:31:23;10.00;;;7.45;;
37905;SDS011;23739;51.448;6.674;2023-04-24T05:33:50;8.48;;;7.03;;
37905;SDS011;23739;51.448;6.674;2023-04-24T05:36:16;10.93;;;7.38;;
37905;SDS011;23739;51.448;6.674;2023-04-24T05:38:42;13.68;;;8.57;;
37905;SDS011;23739;51.448;6.674;2023-04-24T05:41:08;15.00;;;8.40;;
37905;SDS011;23739;51.448;6.674;2023-04-24T05:43:34;13.05;;;7.32;;
37905;SDS011;23739;51.448;6.674;2023-04-24T05:46:01;11.50;;;7.97;;
37905;SDS011;23739;51.448;6.674;2023-04-24T05:48:27;9.10;;;7.53;;
37905;SDS011;23739;51.448;6.674;2023-04-24T05:50:53;12.48;;;9.35;;
37905;SDS011;23739;51.448;6.674;2023-04-24T05:53:19;8.95;;;8.05;;
37905;SDS011;23739;51.448;6.674;2023-04-24T05:55:45;10.10;;;7.45;;
37905;SDS011;23739;51.448;6.674;2023-04-24T05:58:11;13.02;;;8.10;;
37905;SDS011;23739;51.448;6.674;2023-04-24T06:00:37;12.10;;;8.52;;
37905;SDS011;23739;51.448;6.674;2023-04-24T06:03:07;13.45;;;8.32;;
37905;SDS011;23739;51.448;6.674;2023-04-24T06:05:34;15.57;;;8.88;;
37905;SDS011;23739;51.448;6.674;2023-04-24T06:08:00;9.13;;;7.97;;
37905;SDS011;23739;51.448;6.674;2023-04-24T06:10:26;11.52;;;8.63;;
37905;SDS011;23739;51.448;6.674;2023-04-24T06:12:53;11.27;;;7.85;;
37905;SDS011;23739;51.448;6.674;2023-04-24T06:15:21;15.68;;;8.70;;
37905;SDS011;23739;51.448;6.674;2023-04-24T06:17:47;11.65;;;8.65;;
37905;SDS011;23739;51.448;6.674;2023-04-24T06:20:13;10.05;;;7.90;;
37905;SDS011;23739;51.448;6.674;2023-04-24T06:22:39;9.43;;;7.90;;
37905;SDS011;23739;51.448;6.674;2023-04-24T06:25:05;10.65;;;7.78;;
37905;SDS011;23739;51.448;6.674;2023-04-24T06:27:32;8.40;;;7.35;;
37905;SDS011;23739;51.448;6.674;2023-04-24T06:29:58;11.30;;;6.88;;
37905;SDS011;23739;51.448;6.674;2023-04-24T06:32:24;8.95;;;7.20;;
37905;SDS011;23739;51.448;6.674;2023-04-24T06:34:52;7.05;;;5.75;;
37905;SDS011;23739;51.448;6.674;2023-04-24T06:37:18;8.35;;;5.65;;
37905;SDS011;23739;51.448;6.674;2023-04-24T06:39:45;8.95;;;5.95;;
37905;SDS011;23739;51.448;6.674;2023-04-24T06:42:11;9.43;;;6.40;;
37905;SDS011;23739;51.448;6.674;2023-04-24T06:44:38;6.93;;;5.50;;
37905;SDS011;23739;51.448;6.674;2023-04-24T06:47:09;6.10;;;5.03;;
37905;SDS011;23739;51.448;6.674;2023-04-24T06:52:04;5.18;;;4.25;;
37905;SDS011;23739;51.448;6.674;2023-04-24T06:54:30;5.90;;;4.63;;
37905;SDS011;23739;51.448;6.674;2023-04-24T06:56:56;5.03;;;4.25;;
37905;SDS011;23739;51.448;6.674;2023-04-24T06:59:25;6.78;;;4.38;;
37905;SDS011;23739;51.448;6.674;2023-04-24T07:01:51;5.47;;;3.88;;
37905;SDS011;23739;51.448;6.674;2023-04-24T07:04:17;5.90;;;5.13;;
37905;SDS011;23739;51.448;6.674;2023-04-24T07:06:47;6.20;;;4.30;;
37905;SDS011;23739;51.448;6.674;2023-04-24T07:09:14;3.92;;;3.00;;
37905;SDS011;23739;51.448;6.674;2023-04-24T07:11:41;5.72;;;2.80;;
37905;SDS011;23739;51.448;6.674;2023-04-24T07:14:07;3.90;;;2.22;;
37905;SDS011;23739;51.448;6.674;2023-04-24T07:16:33;1.65;;;1.52;;
37905;SDS011;23739;51.448;6.674;2023-04-24T07:18:59;1.80;;;1.70;;
37905;SDS011;23739;51.448;6.674;2023-04-24T07:21:26;2.85;;;1.35;;
37905;SDS011;23739;51.448;6.674;2023-04-24T07:23:53;2.03;;;1.27;;
37905;SDS011;23739;51.448;6.674;2023-04-24T07:26:19;1.02;;;0.93;;
37905;SDS011;23739;51.448;6.674;2023-04-24T07:28:46;1.45;;;1.17;;
37905;SDS011;23739;51.448;6.674;2023-04-24T07:31:12;1.35;;;1.13;;
37905;SDS011;23739;51.448;6.674;2023-04-24T07:33:38;2.13;;;1.52;;
37905;SDS011;23739;51.448;6.674;2023-04-24T07:36:05;0.93;;;0.75;;
37905;SDS011;23739;51.448;6.674;2023-04-24T07:38:31;0.75;;;0.75;;
37905;SDS011;23739;51.448;6.674;2023-04-24T07:40:57;1.15;;;0.90;;
37905;SDS011;23739;51.448;6.674;2023-04-24T07:43:23;2.22;;;0.90;;
37905;SDS011;23739;51.448;6.674;2023-04-24T07:45:50;1.40;;;1.05;;
37905;SDS011;23739;51.448;6.674;2023-04-24T07:48:16;0.93;;;0.75;;
37905;SDS011;23739;51.448;6.674;2023-04-24T07:50:43;1.90;;;0.77;;
37905;SDS011;23739;51.448;6.674;2023-04-24T07:53:09;0.98;;;0.68;;
37905;SDS011;23739;51.448;6.674;2023-04-24T07:55:35;1.55;;;0.80;;
37905;SDS011;23739;51.448;6.674;2023-04-24T07:58:01;1.60;;;1.05;;
37905;SDS011;23739;51.448;6.674;2023-04-24T08:00:28;2.33;;;0.80;;
37905;SDS011;23739;51.448;6.674;2023-04-24T08:02:54;1.90;;;0.90;;
37905;SDS011;23739;51.448;6.674;2023-04-24T08:05:20;1.55;;;1.40;;
37905;SDS011;23739;51.448;6.674;2023-04-24T08:07:46;2.70;;;1.20;;
37905;SDS011;23739;51.448;6.674;2023-04-24T08:10:15;3.03;;;0.95;;
37905;SDS011;23739;51.448;6.674;2023-04-24T08:12:41;2.03;;;1.20;;
37905;SDS011;23739;51.448;6.674;2023-04-24T08:15:07;2.80;;;1.58;;
37905;SDS011;23739;51.448;6.674;2023-04-24T08:17:34;1.60;;;1.15;;
37905;SDS011;23739;51.448;6.674;2023-04-24T08:20:01;1.80;;;0.80;;
37905;SDS011;23739;51.448;6.674;2023-04-24T08:22:27;3.20;;;1.33;;
37905;SDS011;23739;51.448;6.674;2023-04-24T08:24:54;1.33;;;0.73;;
37905;SDS011;23739;51.448;6.674;2023-04-24T08:27:21;0.82;;;0.82;;
37905;SDS011;23739;51.448;6.674;2023-04-24T08:29:47;0.93;;;0.73;;
37905;SDS011;23739;51.448;6.674;2023-04-24T08:32:13;2.00;;;1.10;;
37905;SDS011;23739;51.448;6.674;2023-04-24T08:34:40;0.90;;;0.90;;
37905;SDS011;23739;51.448;6.674;2023-04-24T08:37:06;1.02;;;0.60;;
37905;SDS011;23739;51.448;6.674;2023-04-24T08:39:32;1.17;;;0.50;;
37905;SDS011;23739;51.448;6.674;2023-04-24T08:41:58;1.75;;;0.93;;
37905;SDS011;23739;51.448;6.674;2023-04-24T08:44:33;4.90;;;0.90;;
37905;SDS011;23739;51.448;6.674;2023-04-24T08:47:00;2.63;;;0.68;;
37905;SDS011;23739;51.448;6.674;2023-04-24T08:49:28;1.10;;;0.60;;
37905;SDS011;23739;51.448;6.674;2023-04-24T08:51:54;0.82;;;0.70;;
37905;SDS011;23739;51.448;6.674;2023-04-24T08:54:21;1.25;;;0.88;;
37905;SDS011;23739;51.448;6.674;2023-04-24T08:56:47;3.03;;;2.03;;
37905;SDS011;23739;51.448;6.674;2023-04-24T08:59:17;4.47;;;2.50;;
37905;SDS011;23739;51.448;6.674;2023-04-24T09:01:43;5.50;;;4.10;;
37905;SDS011;23739;51.448;6.674;2023-04-24T09:04:11;7.78;;;5.50;;
37905;SDS011;23739;51.448;6.674;2023-04-24T09:06:39;7.22;;;6.15;;
37905;SDS011;23739;51.448;6.674;2023-04-24T09:09:05;11.57;;;6.60;;
37905;SDS011;23739;51.448;6.674;2023-04-24T09:11:32;10.85;;;5.55;;
37905;SDS011;23739;51.448;6.674;2023-04-24T09:13:58;7.78;;;6.20;;
37905;SDS011;23739;51.448;6.674;2023-04-24T09:16:25;8.57;;;6.30;;
37905;SDS011;23739;51.448;6.674;2023-04-24T09:18:52;9.27;;;5.57;;
37905;SDS011;23739;51.448;6.674;2023-04-24T09:21:19;6.85;;;4.60;;
37905;SDS011;23739;51.448;6.674;2023-04-24T09:23:46;7.38;;;4.97;;
37905;SDS011;23739;51.448;6.674;2023-04-24T09:26:12;6.38;;;4.70;;
37905;SDS011;23739;51.448;6.674;2023-04-24T09:28:40;7.35;;;4.90;;
37905;SDS011;23739;51.448;6.674;2023-04-24T09:31:11;9.63;;;5.25;;
37905;SDS011;23739;51.448;6.674;2023-04-24T09:33:39;9.38;;;5.55;;
37905;SDS011;23739;51.448;6.674;2023-04-24T09:36:06;8.95;;;6.32;;
37905;SDS011;23739;51.448;6.674;2023-04-24T09:38:32;9.32;;;5.90;;
37905;SDS011;23739;51.448;6.674;2023-04-24T09:41:03;9.70;;;5.93;;
37905;SDS011;23739;51.448;6.674;2023-04-24T09:43:30;9.10;;;6.00;;
37905;SDS011;23739;51.448;6.674;2023-04-24T09:45:57;9.27;;;6.25;;
37905;SDS011;23739;51.448;6.674;2023-04-24T09:48:30;8.32;;;6.07;;
37905;SDS011;23739;51.448;6.674;2023-04-24T09:50:56;9.77;;;6.55;;
37905;SDS011;23739;51.448;6.674;2023-04-24T09:53:26;12.32;;;6.97;;
37905;SDS011;23739;51.448;6.674;2023-04-24T09:55:53;9.60;;;6.78;;
37905;SDS011;23739;51.448;6.674;2023-04-24T09:58:25;13.13;;;7.05;;
37905;SDS011;23739;51.448;6.674;2023-04-24T10:00:55;10.07;;;6.63;;
37905;SDS011;23739;51.448;6.674;2023-04-24T10:03:25;11.77;;;5.78;;
37905;SDS011;23739;51.448;6.674;2023-04-24T10:05:52;9.82;;;4.88;;
37905;SDS011;23739;51.448;6.674;2023-04-24T10:08:19;12.43;;;4.80;;
37905;SDS011;23739;51.448;6.674;2023-04-24T10:10:46;11.00;;;5.32;;
37905;SDS011;23739;51.448;6.674;2023-04-24T10:13:13;12.57;;;4.45;;
37905;SDS011;23739;51.448;6.674;2023-04-24T10:15:40;8.43;;;4.25;;
37905;SDS011;23739;51.448;6.674;2023-04-24T10:18:07;10.68;;;4.25;;
37905;SDS011;23739;51.448;6.674;2023-04-24T10:20:34;11.02;;;5.00;;
37905;SDS011;23739;51.448;6.674;2023-04-24T10:23:00;14.55;;;5.82;;
37905;SDS011;23739;51.448;6.674;2023-04-24T10:25:27;15.18;;;4.88;;
37905;SDS011;23739;51.448;6.674;2023-04-24T10:27:55;9.13;;;4.50;;
37905;SDS011;23739;51.448;6.674;2023-04-24T10:30:28;11.02;;;5.45;;
37905;SDS011;23739;51.448;6.674;2023-04-24T10:32:55;9.57;;;4.78;;
37905;SDS011;23739;51.448;6.674;2023-04-24T10:35:22;12.20;;;4.35;;
37905;SDS011;23739;51.448;6.674;2023-04-24T10:38:34;12.70;;;5.20;;
37905;SDS011;23739;51.448;6.674;2023-04-24T10:40:44;14.95;;;4.45;;
37905;SDS011;23739;51.448;6.674;2023-04-24T10:43:10;8.77;;;4.07;;
37905;SDS011;23739;51.448;6.674;2023-04-24T10:45:37;13.27;;;4.82;;
37905;SDS011;23739;51.448;6.674;2023-04-24T10:48:04;13.20;;;4.50;;
37905;SDS011;23739;51.448;6.674;2023-04-24T10:50:47;8.55;;;4.45;;
37905;SDS011;23739;51.448;6.674;2023-04-24T10:53:17;12.07;;;4.35;;
37905;SDS011;23739;51.448;6.674;2023-04-24T10:58:10;13.45;;;4.90;;
37905;SDS011;23739;51.448;6.674;2023-04-24T11:00:37;17.20;;;6.43;;
37905;SDS011;23739;51.448;6.674;2023-04-24T11:03:05;20.20;;;4.32;;
37905;SDS011;23739;51.448;6.674;2023-04-24T11:11:13;13.52;;;6.40;;
37905;SDS011;23739;51.448;6.674;2023-04-24T11:19:00;4.38;;;3.03;;
37905;SDS011;23739;51.448;6.674;2023-04-24T11:21:48;8.45;;;3.63;;
37905;SDS011;23739;51.448;6.674;2023-04-24T11:24:26;8.50;;;4.18;;
37905;SDS011;23739;51.448;6.674;2023-04-24T11:26:57;6.25;;;2.85;;
37905;SDS011;23739;51.448;6.674;2023-04-24T11:29:37;4.78;;;2.47;;
37905;SDS011;23739;51.448;6.674;2023-04-24T11:34:51;10.27;;;3.50;;
37905;SDS011;23739;51.448;6.674;2023-04-24T11:37:18;7.13;;;2.80;;
37905;SDS011;23739;51.448;6.674;2023-04-24T11:39:44;7.53;;;3.00;;
37905;SDS011;23739;51.448;6.674;2023-04-24T11:42:13;9.68;;;4.40;;
37905;SDS011;23739;51.448;6.674;2023-04-24T11:44:40;13.27;;;4.45;;
37905;SDS011;23739;51.448;6.674;2023-04-24T11:47:07;7.72;;;2.88;;
37905;SDS011;23739;51.448;6.674;2023-04-24T11:49:36;6.50;;;3.92;;
37905;SDS011;23739;51.448;6.674;2023-04-24T11:52:02;9.68;;;4.15;;
37905;SDS011;23739;51.448;6.674;2023-04-24T11:54:28;10.75;;;4.25;;
37905;SDS011;23739;51.448;6.674;2023-04-24T11:56:55;7.57;;;3.08;;
37905;SDS011;23739;51.448;6.674;2023-04-24T11:59:21;4.53;;;2.65;;
37905;SDS011;23739;51.448;6.674;2023-04-24T12:01:48;12.75;;;4.65;;
37905;SDS011;23739;51.448;6.674;2023-04-24T12:04:15;7.07;;;3.20;;
37905;SDS011;23739;51.448;6.674;2023-04-24T12:07:03;10.23;;;3.92;;
37905;SDS011;23739;51.448;6.674;2023-04-24T12:10:19;8.68;;;3.15;;
37905;SDS011;23739;51.448;6.674;2023-04-24T12:12:17;7.07;;;2.70;;
37905;SDS011;23739;51.448;6.674;2023-04-24T12:17:09;5.03;;;2.90;;
37905;SDS011;23739;51.448;6.674;2023-04-24T12:19:35;5.07;;;2.38;;
37905;SDS011;23739;51.448;6.674;2023-04-24T12:22:04;4.72;;;1.90;;
37905;SDS011;23739;51.448;6.674;2023-04-24T12:24:31;3.75;;;1.75;;
37905;SDS011;23739;51.448;6.674;2023-04-24T12:26:57;3.72;;;1.88;;
37905;SDS011;23739;51.448;6.674;2023-04-24T12:29:24;2.97;;;1.65;;
37905;SDS011;23739;51.448;6.674;2023-04-24T12:31:51;3.55;;;1.83;;
37905;SDS011;23739;51.448;6.674;2023-04-24T12:34:21;3.17;;;1.40;;
37905;SDS011;23739;51.448;6.674;2023-04-24T12:36:47;4.43;;;1.00;;
37905;SDS011;23739;51.448;6.674;2023-04-24T12:39:22;2.88;;;1.20;;
37905;SDS011;23739;51.448;6.674;2023-04-24T12:41:55;4.80;;;2.38;;
37905;SDS011;23739;51.448;6.674;2023-04-24T12:44:34;3.63;;;1.30;;
37905;SDS011;23739;51.448;6.674;2023-04-24T12:47:02;3.80;;;1.52;;
37905;SDS011;23739;51.448;6.674;2023-04-24T12:49:31;2.63;;;1.40;;
37905;SDS011;23739;51.448;6.674;2023-04-24T12:51:57;3.40;;;1.73;;
37905;SDS011;23739;51.448;6.674;2023-04-24T12:54:24;5.95;;;1.15;;
37905;SDS011;23739;51.448;6.674;2023-04-24T12:56:50;1.38;;;1.02;;
37905;SDS011;23739;51.448;6.674;2023-04-24T12:59:16;4.28;;;1.10;;
37905;SDS011;23739;51.448;6.674;2023-04-24T13:01:42;2.85;;;0.90;;
37905;SDS011;23739;51.448;6.674;2023-04-24T13:04:08;1.77;;;0.77;;
37905;SDS011;23739;51.448;6.674;2023-04-24T13:06:38;3.28;;;0.68;;
37905;SDS011;23739;51.448;6.674;2023-04-24T13:09:04;2.88;;;1.00;;
37905;SDS011;23739;51.448;6.674;2023-04-24T13:11:30;4.32;;;1.02;;
37905;SDS011;23739;51.448;6.674;2023-04-24T13:13:59;5.47;;;0.98;;
37905;SDS011;23739;51.448;6.674;2023-04-24T13:16:25;5.38;;;1.10;;
37905;SDS011;23739;51.448;6.674;2023-04-24T13:18:51;4.85;;;0.70;;
37905;SDS011;23739;51.448;6.674;2023-04-24T13:21:17;2.80;;;0.90;;
37905;SDS011;23739;51.448;6.674;2023-04-24T13:23:43;2.63;;;1.17;;
37905;SDS011;23739;51.448;6.674;2023-04-24T13:26:10;2.17;;;1.33;;
37905;SDS011;23739;51.448;6.674;2023-04-24T13:28:36;3.25;;;1.17;;
37905;SDS011;23739;51.448;6.674;2023-04-24T13:31:05;3.78;;;1.10;;
37905;SDS011;23739;51.448;6.674;2023-04-24T13:33:31;3.92;;;1.40;;
37905;SDS011;23739;51.448;6.674;2023-04-24T13:35:57;2.70;;;0.80;;
37905;SDS011;23739;51.448;6.674;2023-04-24T13:38:23;2.92;;;1.10;;
37905;SDS011;23739;51.448;6.674;2023-04-24T13:40:50;3.58;;;1.38;;
37905;SDS011;23739;51.448;6.674;2023-04-24T13:43:16;2.72;;;0.90;;
37905;SDS011;23739;51.448;6.674;2023-04-24T13:45:42;3.40;;;1.52;;
37905;SDS011;23739;51.448;6.674;2023-04-24T13:48:08;3.55;;;0.88;;
37905;SDS011;23739;51.448;6.674;2023-04-24T13:50:34;2.70;;;0.93;;
37905;SDS011;23739;51.448;6.674;2023-04-24T13:53:01;3.13;;;1.02;;
37905;SDS011;23739;51.448;6.674;2023-04-24T13:55:28;4.22;;;0.82;;
37905;SDS011;23739;51.448;6.674;2023-04-24T13:57:54;2.55;;;1.10;;
37905;SDS011;23739;51.448;6.674;2023-04-24T14:00:20;3.67;;;0.82;;
37905;SDS011;23739;51.448;6.674;2023-04-24T14:02:47;3.38;;;0.95;;
37905;SDS011;23739;51.448;6.674;2023-04-24T14:05:13;5.65;;;1.17;;
37905;SDS011;23739;51.448;6.674;2023-04-24T14:07:43;3.67;;;1.38;;
37905;SDS011;23739;51.448;6.674;2023-04-24T14:10:09;3.97;;;0.95;;
37905;SDS011;23739;51.448;6.674;2023-04-24T14:12:36;2.78;;;0.95;;
37905;SDS011;23739;51.448;6.674;2023-04-24T14:15:02;0.63;;;0.47;;
37905;SDS011;23739;51.448;6.674;2023-04-24T14:17:29;3.10;;;0.80;;
37905;SDS011;23739;51.448;6.674;2023-04-24T14:19:56;1.67;;;1.08;;
37905;SDS011;23739;51.448;6.674;2023-04-24T14:22:25;1.73;;;0.63;;
37905;SDS011;23739;51.448;6.674;2023-04-24T14:24:51;5.32;;;1.10;;
37905;SDS011;23739;51.448;6.674;2023-04-24T14:27:17;2.35;;;1.42;;
37905;SDS011;23739;51.448;6.674;2023-04-24T14:29:43;2.25;;;1.80;;
37905;SDS011;23739;51.448;6.674;2023-04-24T14:32:10;2.47;;;1.77;;
37905;SDS011;23739;51.448;6.674;2023-04-24T14:34:36;3.30;;;1.45;;
37905;SDS011;23739;51.448;6.674;2023-04-24T14:37:02;3.13;;;1.38;;
37905;SDS011;23739;51.448;6.674;2023-04-24T14:39:28;5.97;;;1.40;;
37905;SDS011;23739;51.448;6.674;2023-04-24T14:41:55;3.88;;;1.35;;
37905;SDS011;23739;51.448;6.674;2023-04-24T14:44:21;3.90;;;1.33;;
37905;SDS011;23739;51.448;6.674;2023-04-24T14:46:48;4.28;;;1.42;;
37905;SDS011;23739;51.448;6.674;2023-04-24T14:49:15;2.92;;;1.60;;
37905;SDS011;23739;51.448;6.674;2023-04-24T14:51:41;2.92;;;1.35;;
37905;SDS011;23739;51.448;6.674;2023-04-24T14:54:07;3.60;;;1.50;;
37905;SDS011;23739;51.448;6.674;2023-04-24T14:56:34;3.15;;;1.60;;
37905;SDS011;23739;51.448;6.674;2023-04-24T14:59:00;2.25;;;1.77;;
37905;SDS011;23739;51.448;6.674;2023-04-24T15:01:26;2.30;;;1.27;;
37905;SDS011;23739;51.448;6.674;2023-04-24T15:03:52;5.53;;;2.25;;